Time;durP1;ratioP1;P1;durP2;ratioP2;P2;SDS_P1;SDS_P2;PMS_P1;PMS_P2;Temp;Humidity;BMP_temperature;BMP_pressure;BME280_temperature;BME280_humidity;BME280_pressure;Samples;Min_cycle;Max_cycle;Signal;HPM_P1;HPM_P2
2020/12/01 00:01:50;;;;;;;35.10;18.90;;;1.30;99.90;;;;;;5032228;28;20952;-71
2020/12/01 00:04:16;;;;;;;32.30;20.50;;;1.30;99.90;;;;;;5021173;28;20211;-71
2020/12/01 00:06:42;;;;;;;30.13;19.60;;;1.30;99.90;;;;;;5029286;28;20873;-70
2020/12/01 00:09:08;;;;;;;30.57;20.33;;;1.20;99.90;;;;;;5017555;28;20519;-71
2020/12/01 00:11:33;;;;;;;32.50;19.67;;;1.30;99.90;;;;;;5027176;28;20527;-71
2020/12/01 00:13:59;;;;;;;36.07;21.37;;;1.30;99.90;;;;;;5017689;28;20174;-72
2020/12/01 00:16:24;;;;;;;38.03;22.90;;;1.20;99.90;;;;;;5020307;28;20211;-71
2020/12/01 00:18:50;;;;;;;30.67;21.30;;;1.20;99.90;;;;;;5024871;28;20178;-71
2020/12/01 00:21:18;;;;;;;39.53;23.63;;;1.20;99.90;;;;;;5029574;28;20209;-71
2020/12/01 00:23:44;;;;;;;35.40;21.93;;;1.20;99.90;;;;;;5015098;28;20201;-71
2020/12/01 00:26:13;;;;;;;35.90;22.27;;;1.20;99.90;;;;;;5030855;28;20432;-71
2020/12/01 00:28:38;;;;;;;31.07;21.83;;;1.20;99.90;;;;;;5022955;28;20440;-72
2020/12/01 00:31:04;;;;;;;39.07;23.60;;;1.20;99.90;;;;;;5028490;28;20453;-72
2020/12/01 00:33:30;;;;;;;45.57;25.07;;;1.20;99.90;;;;;;5017351;28;20190;-72
2020/12/01 00:35:55;;;;;;;35.00;22.37;;;1.20;99.90;;;;;;5032092;28;20178;-71
2020/12/01 00:38:21;;;;;;;32.90;22.50;;;1.20;99.90;;;;;;5021891;28;20190;-71
2020/12/01 00:40:51;;;;;;;40.70;23.50;;;1.20;99.90;;;;;;5027113;28;20209;-71
2020/12/01 00:43:17;;;;;;;49.37;24.73;;;1.20;99.90;;;;;;5013748;28;20175;-71
2020/12/01 00:45:43;;;;;;;41.47;23.10;;;1.20;99.90;;;;;;5018668;28;20836;-71
2020/12/01 00:48:09;;;;;;;38.77;24.50;;;1.20;99.90;;;;;;5013090;28;20953;-71
2020/12/01 00:50:35;;;;;;;38.30;22.87;;;1.20;99.90;;;;;;5025013;28;20451;-72
2020/12/01 00:53:00;;;;;;;44.60;25.50;;;1.20;99.90;;;;;;5021106;28;20433;-72
2020/12/01 00:55:26;;;;;;;45.27;25.13;;;1.20;99.90;;;;;;5013768;28;20186;-71
2020/12/01 00:57:51;;;;;;;43.27;24.67;;;1.20;99.90;;;;;;5019925;28;20321;-71
2020/12/01 01:00:23;;;;;;;45.23;24.00;;;1.20;99.90;;;;;;5014848;28;20234;-70
2020/12/01 01:02:49;;;;;;;40.43;24.33;;;1.20;99.90;;;;;;5028447;28;20255;-71
2020/12/01 01:05:15;;;;;;;45.83;24.03;;;1.20;99.90;;;;;;5028646;28;20488;-70
2020/12/01 01:07:40;;;;;;;42.33;23.70;;;1.20;99.90;;;;;;5044320;28;20175;-70
2020/12/01 01:10:06;;;;;;;42.77;25.23;;;1.20;99.90;;;;;;5021998;28;20648;-71
2020/12/01 01:12:34;;;;;;;42.87;25.57;;;1.20;99.90;;;;;;5026075;28;20210;-70
2020/12/01 01:15:00;;;;;;;42.00;24.50;;;1.20;99.90;;;;;;5016934;28;20523;-70
2020/12/01 01:17:25;;;;;;;54.57;25.63;;;1.20;99.90;;;;;;5028341;28;21114;-70
2020/12/01 01:19:51;;;;;;;47.27;24.60;;;1.20;99.90;;;;;;5018779;28;20210;-69
2020/12/01 01:22:16;;;;;;;52.23;25.50;;;1.20;99.90;;;;;;5022591;28;20191;-70
2020/12/01 01:24:42;;;;;;;46.80;27.07;;;1.20;99.90;;;;;;5013109;28;20187;-70
2020/12/01 01:27:07;;;;;;;42.97;24.53;;;1.20;99.90;;;;;;5029523;28;20194;-70
2020/12/01 01:29:33;;;;;;;47.47;25.20;;;1.20;99.90;;;;;;5015696;28;20596;-70
2020/12/01 01:31:58;;;;;;;41.13;25.87;;;1.20;99.90;;;;;;5023835;28;20215;-70
2020/12/01 01:34:24;;;;;;;46.67;23.90;;;1.20;99.90;;;;;;5022617;28;20188;-70
2020/12/01 01:36:50;;;;;;;45.20;26.00;;;1.20;99.90;;;;;;5030263;28;20185;-70
2020/12/01 01:39:15;;;;;;;52.30;26.20;;;1.30;99.90;;;;;;5017296;28;20210;-70
2020/12/01 01:41:42;;;;;;;53.10;25.90;;;1.20;99.90;;;;;;5028732;28;20210;-70
2020/12/01 01:44:37;;;;;;;42.97;24.33;;;1.30;99.90;;;;;;5020184;28;20186;-71
2020/12/01 01:47:19;;;;;;;43.67;25.70;;;1.30;99.90;;;;;;5008496;28;20476;-70
2020/12/01 01:49:47;;;;;;;47.20;24.40;;;1.30;99.90;;;;;;5012211;28;20434;-70
2020/12/01 01:52:21;;;;;;;50.93;26.53;;;1.40;99.90;;;;;;5024585;28;20519;-70
2020/12/01 01:54:51;;;;;;;44.93;23.80;;;1.40;99.90;;;;;;5022063;28;20494;-70
2020/12/01 01:57:17;;;;;;;54.13;26.27;;;1.40;99.90;;;;;;5026719;28;20877;-71
2020/12/01 01:59:45;;;;;;;45.70;26.33;;;1.40;99.90;;;;;;5024672;28;20473;-71
2020/12/01 02:02:10;;;;;;;45.73;25.40;;;1.40;99.90;;;;;;5018770;28;20229;-71
2020/12/01 02:04:36;;;;;;;44.63;23.77;;;1.40;99.90;;;;;;5022404;28;21184;-71
2020/12/01 02:07:04;;;;;;;47.63;25.13;;;1.40;99.90;;;;;;5030893;28;20179;-71
2020/12/01 02:09:36;;;;;;;42.33;23.63;;;1.40;99.90;;;;;;5014672;28;20241;-71
2020/12/01 02:12:04;;;;;;;51.07;26.43;;;1.40;99.90;;;;;;5027529;28;20461;-71
2020/12/01 02:14:41;;;;;;;44.60;25.00;;;1.40;99.90;;;;;;5022943;28;20442;-71
2020/12/01 02:17:19;;;;;;;41.10;23.37;;;1.40;99.90;;;;;;5025947;28;20519;-71
2020/12/01 02:19:45;;;;;;;44.73;23.63;;;1.40;99.90;;;;;;5012513;28;20473;-71
2020/12/01 02:22:14;;;;;;;46.30;25.67;;;1.40;99.90;;;;;;5017632;28;20464;-70
2020/12/01 02:24:40;;;;;;;41.10;24.10;;;1.40;99.90;;;;;;5030565;28;20850;-71
2020/12/01 02:27:06;;;;;;;42.77;25.63;;;1.40;99.90;;;;;;5025541;28;20472;-70
2020/12/01 02:29:34;;;;;;;44.40;27.50;;;1.40;99.90;;;;;;5018593;28;20457;-71
2020/12/01 02:32:00;;;;;;;52.70;27.00;;;1.40;99.90;;;;;;5024450;28;20285;-71
2020/12/01 02:34:37;;;;;;;46.93;25.27;;;1.40;99.90;;;;;;5012105;28;20525;-71
2020/12/01 02:37:03;;;;;;;43.73;26.40;;;1.40;99.90;;;;;;5025066;28;20460;-71
2020/12/01 02:39:29;;;;;;;47.33;26.70;;;1.40;99.90;;;;;;5026255;28;20800;-71
2020/12/01 02:42:00;;;;;;;47.00;27.60;;;1.40;99.90;;;;;;5019534;28;20471;-70
2020/12/01 02:44:27;;;;;;;41.13;24.03;;;1.40;99.90;;;;;;5019245;28;20426;-70
2020/12/01 02:46:55;;;;;;;48.60;25.03;;;1.30;99.90;;;;;;5011604;28;21052;-70
2020/12/01 02:49:21;;;;;;;51.47;25.87;;;1.30;99.90;;;;;;5027349;28;20435;-70
2020/12/01 02:51:47;;;;;;;46.03;24.57;;;1.30;99.90;;;;;;5026517;28;20460;-71
2020/12/01 02:54:12;;;;;;;44.47;25.40;;;1.30;99.90;;;;;;5011358;28;20958;-71
2020/12/01 02:56:38;;;;;;;47.03;24.00;;;1.30;99.90;;;;;;5025021;28;20218;-70
2020/12/01 02:59:04;;;;;;;49.43;23.13;;;1.30;99.90;;;;;;5016081;28;20186;-70
2020/12/01 03:01:29;;;;;;;37.20;22.43;;;1.40;99.90;;;;;;5013095;28;20211;-71
2020/12/01 03:03:55;;;;;;;47.37;24.80;;;1.40;99.90;;;;;;5025893;28;20204;-71
2020/12/01 03:06:21;;;;;;;47.83;24.87;;;1.40;99.90;;;;;;5022692;28;20186;-70
2020/12/01 03:08:47;;;;;;;47.13;25.63;;;1.40;99.90;;;;;;5029599;28;20182;-71
2020/12/01 03:11:13;;;;;;;41.67;22.40;;;1.40;99.90;;;;;;5014615;28;20329;-70
2020/12/01 03:13:39;;;;;;;40.67;22.20;;;1.50;99.90;;;;;;5011424;28;20525;-72
2020/12/01 03:16:08;;;;;;;40.67;21.90;;;1.50;99.90;;;;;;5024535;28;20174;-70
2020/12/01 03:18:38;;;;;;;42.17;23.40;;;1.60;99.90;;;;;;5028080;28;20421;-71
2020/12/01 03:21:05;;;;;;;45.07;22.43;;;1.60;99.90;;;;;;5019672;28;20811;-70
2020/12/01 03:23:31;;;;;;;41.43;22.30;;;1.60;99.90;;;;;;5028805;28;20979;-70
2020/12/01 03:25:58;;;;;;;43.80;23.33;;;1.50;99.90;;;;;;5014968;28;20443;-70
2020/12/01 03:28:23;;;;;;;42.27;22.10;;;1.50;99.90;;;;;;5018673;28;20250;-71
2020/12/01 03:30:49;;;;;;;53.50;22.67;;;1.50;99.90;;;;;;5016058;28;20592;-72
2020/12/01 03:33:14;;;;;;;45.53;23.00;;;1.50;99.90;;;;;;5016624;28;20204;-71
2020/12/01 03:35:40;;;;;;;47.83;24.17;;;1.50;99.90;;;;;;5026778;28;20179;-70
2020/12/01 03:38:05;;;;;;;45.60;23.67;;;1.50;99.90;;;;;;5022272;28;20186;-71
2020/12/01 03:40:31;;;;;;;41.20;22.37;;;1.50;99.90;;;;;;5015801;28;20237;-72
2020/12/01 03:42:57;;;;;;;45.73;23.10;;;1.60;99.90;;;;;;5024508;28;20178;-72
2020/12/01 03:45:23;;;;;;;53.83;25.80;;;1.60;99.90;;;;;;5011741;28;20438;-72
2020/12/01 03:47:53;;;;;;;46.00;24.57;;;1.60;99.90;;;;;;5016955;28;20177;-70
2020/12/01 03:50:19;;;;;;;45.77;24.57;;;1.60;99.90;;;;;;5026572;28;20185;-70
2020/12/01 03:52:45;;;;;;;38.17;23.17;;;1.60;99.90;;;;;;5014248;28;21107;-72
2020/12/01 03:55:11;;;;;;;42.63;23.10;;;1.60;99.90;;;;;;5022949;28;20452;-70
2020/12/01 03:57:42;;;;;;;49.10;24.90;;;1.60;99.90;;;;;;5011605;28;20714;-71
2020/12/01 04:00:11;;;;;;;43.00;23.83;;;1.70;99.90;;;;;;5011010;28;20174;-72
2020/12/01 04:02:37;;;;;;;46.67;23.30;;;1.70;99.90;;;;;;5014816;28;20471;-70
2020/12/01 04:05:04;;;;;;;53.00;23.27;;;1.70;99.90;;;;;;5010994;28;20516;-72
2020/12/01 04:07:30;;;;;;;52.33;22.97;;;1.70;99.90;;;;;;5013015;28;20179;-71
2020/12/01 04:09:57;;;;;;;44.90;22.80;;;1.70;99.90;;;;;;5021697;28;20489;-71
2020/12/01 04:12:23;;;;;;;54.53;23.97;;;1.70;99.90;;;;;;5015962;28;20445;-72
2020/12/01 04:14:49;;;;;;;50.30;24.50;;;1.70;99.90;;;;;;5025722;28;20782;-70
2020/12/01 04:17:14;;;;;;;40.33;21.87;;;1.70;99.90;;;;;;5010448;28;20445;-71
2020/12/01 04:19:41;;;;;;;49.50;23.87;;;1.70;99.90;;;;;;5018686;28;20615;-72
2020/12/01 04:22:06;;;;;;;50.70;22.70;;;1.70;99.90;;;;;;4983046;28;20232;-71
2020/12/01 04:24:32;;;;;;;47.50;25.17;;;1.70;99.90;;;;;;5033020;28;20543;-71
2020/12/01 04:26:57;;;;;;;48.73;24.77;;;1.70;99.90;;;;;;5029771;28;20615;-70
2020/12/01 04:29:23;;;;;;;42.30;24.70;;;1.80;99.90;;;;;;5029227;28;20249;-71
2020/12/01 04:31:49;;;;;;;47.63;23.53;;;1.70;99.90;;;;;;5029744;28;20553;-70
2020/12/01 04:34:14;;;;;;;43.57;22.00;;;1.80;99.90;;;;;;5029906;28;20571;-70
2020/12/01 04:36:40;;;;;;;53.57;25.50;;;1.80;99.90;;;;;;5030027;28;20175;-71
2020/12/01 04:39:05;;;;;;;46.83;25.80;;;1.80;99.90;;;;;;5028700;28;20174;-70
2020/12/01 04:41:31;;;;;;;46.03;25.80;;;1.80;99.90;;;;;;5029351;28;20214;-70
2020/12/01 04:44:00;;;;;;;44.63;22.20;;;1.80;99.90;;;;;;5025206;28;20258;-71
2020/12/01 04:46:29;;;;;;;52.83;23.90;;;1.80;99.90;;;;;;5029775;28;20690;-71
2020/12/01 04:48:58;;;;;;;43.67;23.20;;;1.80;99.90;;;;;;5030902;28;20761;-70
2020/12/01 04:51:43;;;;;;;43.30;23.13;;;1.80;99.90;;;;;;5033221;28;20801;-71
2020/12/01 04:54:29;;;;;;;43.00;23.00;;;1.80;99.90;;;;;;5031883;28;20447;-70
2020/12/01 04:57:31;;;;;;;41.27;22.40;;;1.80;99.90;;;;;;5032806;28;20432;-71
2020/12/01 05:00:13;;;;;;;48.57;22.80;;;1.90;99.90;;;;;;5029349;28;20511;-70
2020/12/01 05:03:08;;;;;;;33.43;21.00;;;1.90;99.90;;;;;;5025503;28;20593;-70
2020/12/01 05:06:06;;;;;;;42.43;22.63;;;2.00;99.90;;;;;;5025820;28;20962;-70
2020/12/01 05:08:32;;;;;;;39.37;20.43;;;1.90;99.90;;;;;;5031894;28;20973;-70
2020/12/01 05:11:11;;;;;;;38.13;23.03;;;2.00;99.90;;;;;;5031976;28;20487;-70
2020/12/01 05:13:37;;;;;;;40.33;20.37;;;2.00;99.90;;;;;;5032899;28;20432;-71
2020/12/01 05:16:26;;;;;;;46.47;22.37;;;2.00;99.90;;;;;;5032110;28;20429;-71
2020/12/01 05:18:51;;;;;;;37.77;19.47;;;2.10;99.90;;;;;;5012405;28;20197;-71
2020/12/01 05:21:23;;;;;;;34.17;21.80;;;2.10;99.90;;;;;;5024183;28;20468;-71
2020/12/01 05:23:49;;;;;;;36.33;21.20;;;2.10;99.90;;;;;;5031963;28;20533;-71
2020/12/01 05:26:18;;;;;;;34.23;20.20;;;2.10;99.90;;;;;;5032224;28;21181;-71
2020/12/01 05:28:54;;;;;;;39.80;21.90;;;2.10;99.90;;;;;;5031590;28;20981;-71
2020/12/01 05:31:24;;;;;;;36.53;21.03;;;2.10;99.90;;;;;;5011171;28;20472;-71
2020/12/01 05:34:04;;;;;;;39.70;21.07;;;2.20;99.90;;;;;;5029269;28;20536;-71
2020/12/01 05:36:35;;;;;;;37.23;20.97;;;2.20;99.90;;;;;;5022826;28;20433;-71
2020/12/01 05:39:05;;;;;;;37.07;19.77;;;2.20;99.90;;;;;;5031005;28;20441;-70
2020/12/01 05:41:36;;;;;;;40.60;21.70;;;2.20;99.90;;;;;;5031844;28;20467;-70
2020/12/01 05:44:23;;;;;;;40.60;20.77;;;2.30;99.90;;;;;;5016484;28;20560;-71
2020/12/01 05:47:02;;;;;;;31.30;19.87;;;2.30;99.90;;;;;;5032290;28;20461;-70
2020/12/01 05:49:36;;;;;;;33.90;18.63;;;2.40;99.90;;;;;;5024526;28;20533;-70
2020/12/01 05:52:14;;;;;;;27.43;17.60;;;2.40;99.90;;;;;;5031555;28;20456;-70
2020/12/01 05:54:45;;;;;;;31.83;19.27;;;2.50;99.90;;;;;;5032214;28;20489;-71
2020/12/01 05:57:21;;;;;;;31.00;18.80;;;2.50;99.90;;;;;;5030688;28;20434;-70
2020/12/01 06:00:01;;;;;;;29.87;17.00;;;2.60;99.90;;;;;;5031367;28;20809;-70
2020/12/01 06:02:42;;;;;;;30.50;20.23;;;2.60;99.90;;;;;;5031546;28;20461;-70
2020/12/01 06:05:11;;;;;;;29.30;20.03;;;2.60;99.90;;;;;;5031854;28;20437;-70
2020/12/01 06:07:38;;;;;;;26.47;16.17;;;2.60;99.90;;;;;;5030620;28;20480;-70
2020/12/01 06:10:24;;;;;;;28.70;17.67;;;2.60;99.90;;;;;;5031520;28;21015;-70
2020/12/01 06:13:27;;;;;;;26.00;16.00;;;2.60;99.90;;;;;;5026897;28;21023;-70
2020/12/01 06:16:31;;;;;;;28.37;17.27;;;2.50;99.90;;;;;;5017606;28;20553;-70
2020/12/01 06:19:04;;;;;;;31.90;17.70;;;2.60;99.90;;;;;;5030827;28;20421;-70
2020/12/01 06:22:01;;;;;;;28.67;18.00;;;2.60;99.90;;;;;;5031362;28;20974;-70
2020/12/01 06:24:45;;;;;;;30.30;17.80;;;2.60;99.90;;;;;;5017001;28;20436;-71
2020/12/01 06:27:19;;;;;;;24.10;15.33;;;2.60;99.90;;;;;;5031350;28;20428;-71
2020/12/01 06:30:06;;;;;;;28.60;15.00;;;2.60;99.90;;;;;;5031901;28;20463;-70
2020/12/01 06:32:37;;;;;;;24.67;14.27;;;2.60;99.90;;;;;;5031237;28;20507;-71
2020/12/01 06:35:22;;;;;;;23.57;14.80;;;2.60;99.90;;;;;;5032068;28;20440;-71
2020/12/01 06:38:29;;;;;;;26.63;16.40;;;2.60;99.90;;;;;;5032074;28;20444;-71
2020/12/01 06:41:02;;;;;;;23.33;14.77;;;2.60;99.90;;;;;;5022534;28;20473;-70
2020/12/01 06:43:41;;;;;;;25.33;14.70;;;2.60;99.90;;;;;;5029859;28;20440;-70
2020/12/01 06:46:25;;;;;;;22.00;14.20;;;2.60;99.90;;;;;;5019711;28;20523;-71
2020/12/01 06:48:50;;;;;;;23.17;14.70;;;2.60;99.90;;;;;;5029706;28;21285;-70
2020/12/01 06:51:17;;;;;;;28.73;16.30;;;2.70;99.90;;;;;;5025541;28;20484;-70
2020/12/01 06:53:43;;;;;;;24.53;15.43;;;2.70;99.90;;;;;;5030316;28;20269;-70
2020/12/01 06:56:11;;;;;;;23.47;13.97;;;2.80;99.90;;;;;;5030608;28;21013;-71
2020/12/01 06:58:43;;;;;;;36.27;19.80;;;2.80;99.90;;;;;;5029081;28;20660;-70
2020/12/01 07:01:17;;;;;;;37.13;20.47;;;2.80;99.90;;;;;;5024630;28;20554;-72
2020/12/01 07:03:46;;;;;;;23.73;15.27;;;2.80;99.90;;;;;;5001960;28;20443;-71
2020/12/01 07:06:17;;;;;;;26.20;14.50;;;2.80;99.90;;;;;;5029209;28;20489;-70
2020/12/01 07:08:43;;;;;;;25.97;14.33;;;2.80;99.90;;;;;;5026114;28;20439;-70
2020/12/01 07:11:28;;;;;;;18.63;12.47;;;2.80;99.90;;;;;;5025892;28;20461;-70
2020/12/01 07:14:01;;;;;;;22.20;14.77;;;2.80;99.90;;;;;;5007809;28;20206;-70
2020/12/01 07:16:45;;;;;;;28.10;18.83;;;2.80;99.90;;;;;;5009658;28;20422;-70
2020/12/01 07:19:31;;;;;;;31.20;18.43;;;2.80;99.90;;;;;;5023526;28;20433;-71
2020/12/01 07:22:24;;;;;;;32.33;19.07;;;2.80;99.90;;;;;;5008897;28;20995;-69
2020/12/01 07:25:02;;;;;;;24.33;14.40;;;2.80;99.90;;;;;;5015167;28;21222;-69
2020/12/01 07:27:51;;;;;;;29.77;17.67;;;2.80;99.90;;;;;;4987465;28;20537;-70
2020/12/01 07:30:19;;;;;;;29.60;18.67;;;2.80;99.90;;;;;;5027015;28;20434;-69
2020/12/01 07:32:57;;;;;;;27.80;17.57;;;2.80;99.90;;;;;;5010754;28;20425;-68
2020/12/01 07:35:43;;;;;;;27.13;16.77;;;2.90;99.90;;;;;;5007232;28;20499;-72
2020/12/01 07:38:33;;;;;;;21.20;13.87;;;2.90;99.90;;;;;;5023532;28;20432;-69
2020/12/01 07:41:13;;;;;;;19.10;11.97;;;2.90;99.90;;;;;;5014601;28;20479;-70
2020/12/01 07:43:39;;;;;;;17.80;13.27;;;2.90;99.90;;;;;;5012381;28;20433;-70
2020/12/01 07:46:05;;;;;;;22.77;15.93;;;2.90;99.90;;;;;;5020756;28;20440;-70
2020/12/01 07:48:31;;;;;;;18.00;11.33;;;2.90;99.90;;;;;;5023106;28;20181;-70
2020/12/01 07:51:09;;;;;;;19.20;13.10;;;2.90;99.90;;;;;;5022094;28;20465;-71
2020/12/01 07:53:41;;;;;;;23.63;15.70;;;3.00;99.90;;;;;;5024677;28;20445;-72
2020/12/01 07:56:12;;;;;;;23.03;15.43;;;3.00;99.90;;;;;;5019721;28;20433;-71
2020/12/01 07:58:37;;;;;;;35.00;19.90;;;3.10;99.90;;;;;;5018261;28;20992;-71
2020/12/01 08:01:14;;;;;;;34.50;22.30;;;3.20;99.90;;;;;;5009869;28;20469;-71
2020/12/01 08:03:39;;;;;;;35.83;21.40;;;3.10;99.90;;;;;;5019576;28;20282;-70
2020/12/01 08:06:16;;;;;;;34.53;21.50;;;3.00;99.90;;;;;;5021993;28;20540;-70
2020/12/01 08:08:46;;;;;;;28.40;19.70;;;3.00;99.90;;;;;;5023889;28;20221;-71
2020/12/01 08:11:14;;;;;;;25.17;19.63;;;3.10;99.90;;;;;;5021868;28;20509;-71
2020/12/01 08:13:42;;;;;;;41.67;21.70;;;3.10;99.90;;;;;;5024866;28;20437;-71
2020/12/01 08:16:19;;;;;;;36.33;20.33;;;3.10;99.90;;;;;;5022909;28;21211;-71
2020/12/01 08:18:46;;;;;;;29.30;19.57;;;3.10;99.90;;;;;;5018561;28;20570;-71
2020/12/01 08:21:15;;;;;;;27.10;16.87;;;3.10;99.90;;;;;;5013388;28;20469;-71
2020/12/01 08:23:43;;;;;;;21.90;15.93;;;3.10;99.90;;;;;;5017418;28;20433;-71
2020/12/01 08:26:24;;;;;;;24.43;15.03;;;3.10;99.90;;;;;;5019766;28;20456;-71
2020/12/01 08:29:18;;;;;;;27.87;17.37;;;3.10;99.90;;;;;;5014470;28;20525;-71
2020/12/01 08:32:03;;;;;;;20.03;12.27;;;3.10;99.90;;;;;;5020802;28;20468;-71
2020/12/01 08:34:43;;;;;;;19.37;12.03;;;3.10;99.90;;;;;;5020703;28;20451;-71
2020/12/01 08:37:37;;;;;;;15.93;11.20;;;3.20;99.90;;;;;;5026027;28;20440;-71
2020/12/01 08:40:15;;;;;;;18.77;12.80;;;3.20;99.90;;;;;;5021847;28;20476;-72
2020/12/01 08:42:44;;;;;;;20.23;13.83;;;3.30;99.90;;;;;;5032407;28;20534;-71
2020/12/01 08:45:28;;;;;;;20.53;15.77;;;3.10;99.90;;;;;;5012240;28;20428;-71
2020/12/01 08:48:00;;;;;;;22.13;15.97;;;3.10;99.90;;;;;;5026688;28;20506;-71
2020/12/01 08:50:33;;;;;;;20.17;14.77;;;3.10;99.90;;;;;;5027289;28;20467;-71
2020/12/01 08:53:12;;;;;;;14.70;11.17;;;3.10;99.90;;;;;;5014174;28;21016;-72
2020/12/01 08:55:49;;;;;;;18.17;12.70;;;3.20;99.90;;;;;;5020866;28;20456;-71
2020/12/01 08:58:26;;;;;;;15.53;11.87;;;3.20;99.90;;;;;;5027425;28;20452;-72
2020/12/01 09:00:55;;;;;;;13.10;10.67;;;3.20;99.90;;;;;;5019022;28;20468;-72
2020/12/01 09:03:21;;;;;;;16.97;10.90;;;3.30;99.90;;;;;;5029615;28;20461;-72
2020/12/01 09:05:49;;;;;;;14.23;10.10;;;3.30;99.90;;;;;;5014165;28;20446;-72
2020/12/01 09:14:43;;;;;;;21.03;14.30;;;3.30;99.90;;;;;;5020345;28;20434;-72
2020/12/01 09:17:10;;;;;;;20.27;12.90;;;3.30;99.90;;;;;;5009307;28;20452;-72
2020/12/01 09:22:23;;;;;;;16.97;12.57;;;3.40;99.90;;;;;;5012252;28;20469;-71
2020/12/01 09:24:49;;;;;;;11.43;9.43;;;3.40;99.90;;;;;;5022745;28;20495;-71
2020/12/01 09:27:16;;;;;;;9.63;8.37;;;3.40;99.90;;;;;;5013112;28;20436;-71
2020/12/01 09:29:50;;;;;;;16.87;11.47;;;3.40;99.90;;;;;;5027272;28;20472;-71
2020/12/01 09:32:20;;;;;;;15.40;10.20;;;3.40;99.90;;;;;;5023616;28;20468;-71
2020/12/01 09:34:47;;;;;;;13.43;10.80;;;3.50;99.90;;;;;;5014848;28;20430;-71
2020/12/01 09:37:13;;;;;;;13.03;9.60;;;3.50;99.90;;;;;;5011598;28;20529;-72
2020/12/01 09:39:39;;;;;;;15.10;9.57;;;3.50;99.90;;;;;;5022146;28;20452;-71
2020/12/01 09:42:29;;;;;;;12.00;8.90;;;3.50;99.90;;;;;;5015253;28;20475;-71
2020/12/01 09:45:07;;;;;;;24.30;14.50;;;3.40;99.90;;;;;;5025292;28;20227;-71
2020/12/01 09:47:45;;;;;;;36.37;20.93;;;3.40;99.90;;;;;;5027953;28;20602;-72
2020/12/01 09:50:17;;;;;;;42.57;22.23;;;3.30;99.90;;;;;;5009719;28;20438;-71
2020/12/01 09:52:56;;;;;;;38.63;22.60;;;3.30;99.90;;;;;;5015258;28;20719;-72
2020/12/01 10:01:01;;;;;;;35.10;21.00;;;3.30;99.90;;;;;;5010037;28;20473;-71
2020/12/01 10:08:35;;;;;;;20.93;12.00;;;3.50;99.90;;;;;;5023024;28;20476;-71
2020/12/01 10:29:15;;;;;;;16.73;9.53;;;3.40;99.90;;;;;;5022158;28;20608;-71
2020/12/01 10:35:45;;;;;;;11.00;7.80;;;3.50;99.90;;;;;;5022237;28;20476;-71
2020/12/01 10:38:11;;;;;;;13.40;8.53;;;3.60;99.90;;;;;;5016774;28;20477;-71
2020/12/01 10:40:37;;;;;;;27.70;16.17;;;3.60;99.90;;;;;;5020551;28;20721;-73
2020/12/01 10:43:02;;;;;;;11.53;9.30;;;3.60;99.90;;;;;;5024110;28;20437;-71
2020/12/01 10:45:29;;;;;;;12.53;9.33;;;3.50;99.90;;;;;;5010675;28;20174;-71
2020/12/01 10:47:55;;;;;;;11.90;7.97;;;3.50;99.90;;;;;;5014405;28;20217;-71
2020/12/01 10:50:25;;;;;;;10.30;8.80;;;3.60;99.90;;;;;;5017208;28;20435;-71
2020/12/01 10:52:50;;;;;;;16.40;10.70;;;3.60;99.90;;;;;;5012742;28;20547;-71
2020/12/01 10:55:22;;;;;;;20.93;11.77;;;3.60;99.90;;;;;;5019493;28;21022;-71
2020/12/01 10:57:52;;;;;;;12.67;11.30;;;3.50;99.90;;;;;;5018544;28;20183;-71
2020/12/01 11:00:18;;;;;;;16.37;11.17;;;3.60;99.90;;;;;;5015252;28;20486;-72
2020/12/01 11:02:44;;;;;;;19.13;10.17;;;3.70;99.90;;;;;;5020736;28;20468;-71
2020/12/01 11:05:14;;;;;;;13.63;12.10;;;3.70;99.90;;;;;;5010739;28;20511;-71
2020/12/01 11:07:39;;;;;;;23.00;13.50;;;3.70;99.90;;;;;;5021301;28;20301;-71
2020/12/01 11:10:05;;;;;;;16.83;13.00;;;3.80;99.90;;;;;;5016633;28;21085;-71
2020/12/01 11:12:31;;;;;;;16.50;12.47;;;3.80;99.90;;;;;;5020855;28;20197;-71
2020/12/01 11:14:56;;;;;;;17.83;11.23;;;3.80;99.90;;;;;;5021883;28;20183;-71
2020/12/01 11:17:22;;;;;;;11.67;9.17;;;3.80;99.90;;;;;;5016222;28;20213;-71
2020/12/01 11:19:47;;;;;;;13.33;8.40;;;3.80;99.90;;;;;;5026108;28;20244;-71
2020/12/01 11:22:14;;;;;;;13.63;10.27;;;3.90;99.90;;;;;;5025215;28;20279;-71
2020/12/01 11:24:41;;;;;;;12.40;10.50;;;3.90;99.90;;;;;;5023825;28;20695;-71
2020/12/01 11:27:07;;;;;;;14.43;10.73;;;3.90;99.90;;;;;;5015436;28;20444;-71
2020/12/01 11:29:33;;;;;;;15.30;10.53;;;3.90;99.90;;;;;;5019448;28;20437;-71
2020/12/01 11:31:58;;;;;;;14.70;13.20;;;3.80;99.90;;;;;;5022951;28;20196;-71
2020/12/01 11:34:24;;;;;;;14.47;12.97;;;3.80;99.90;;;;;;5023863;28;20640;-71
2020/12/01 11:36:49;;;;;;;19.07;12.50;;;3.80;99.90;;;;;;5023923;28;20239;-71
2020/12/01 11:39:15;;;;;;;17.80;11.83;;;3.80;99.90;;;;;;5019636;28;20178;-71
2020/12/01 11:41:41;;;;;;;16.00;12.60;;;3.80;99.90;;;;;;5010388;28;20214;-71
2020/12/01 11:44:07;;;;;;;16.87;12.73;;;3.80;99.90;;;;;;5010366;28;20437;-71
2020/12/01 11:46:34;;;;;;;15.37;10.87;;;3.80;99.90;;;;;;5021534;28;20968;-71
2020/12/01 11:49:01;;;;;;;13.90;11.10;;;3.80;99.90;;;;;;5007689;28;20441;-71
2020/12/01 11:51:29;;;;;;;11.73;10.40;;;3.70;99.90;;;;;;5008524;28;21105;-71
2020/12/01 11:53:55;;;;;;;13.23;9.93;;;3.80;99.90;;;;;;5021101;28;21043;-71
2020/12/01 11:56:20;;;;;;;11.43;9.97;;;3.80;99.90;;;;;;5024968;28;20445;-70
2020/12/01 11:58:46;;;;;;;15.40;11.70;;;3.90;99.90;;;;;;5028318;28;20440;-71
2020/12/01 12:01:12;;;;;;;17.33;11.37;;;3.90;99.90;;;;;;5011516;28;20214;-71
2020/12/01 12:03:37;;;;;;;12.30;10.77;;;3.90;99.90;;;;;;5022694;28;20172;-70
2020/12/01 12:06:03;;;;;;;14.60;11.43;;;3.90;99.90;;;;;;5015946;28;20261;-71
2020/12/01 12:08:28;;;;;;;15.87;12.07;;;3.90;99.90;;;;;;5018688;28;20240;-71
2020/12/01 12:10:54;;;;;;;10.47;9.40;;;3.80;99.90;;;;;;5016039;28;20202;-71
2020/12/01 12:13:19;;;;;;;11.60;9.47;;;3.70;99.90;;;;;;5018405;28;20179;-67
2020/12/01 12:15:45;;;;;;;15.10;12.80;;;3.70;99.90;;;;;;5045397;28;20557;-67
2020/12/01 12:18:11;;;;;;;12.60;10.30;;;3.70;99.90;;;;;;5017673;28;20240;-70
2020/12/01 12:20:36;;;;;;;11.30;9.30;;;3.70;99.90;;;;;;5029306;28;20202;-70
2020/12/01 12:23:02;;;;;;;13.00;10.10;;;3.80;99.90;;;;;;5040467;28;20181;-70
2020/12/01 12:25:28;;;;;;;12.27;9.67;;;3.80;99.90;;;;;;5032409;28;20551;-70
2020/12/01 12:27:53;;;;;;;13.50;10.30;;;3.70;99.90;;;;;;5029646;28;20420;-68
2020/12/01 12:30:19;;;;;;;18.90;10.03;;;3.70;99.90;;;;;;5029693;28;20182;-68
2020/12/01 12:32:44;;;;;;;15.60;10.00;;;3.70;99.90;;;;;;5030525;28;20174;-70
2020/12/01 12:35:10;;;;;;;13.30;9.97;;;3.70;99.90;;;;;;5035642;28;20170;-70
2020/12/01 12:37:36;;;;;;;11.27;9.20;;;3.70;99.90;;;;;;5025982;28;20198;-71
2020/12/01 12:40:01;;;;;;;11.50;9.70;;;3.80;99.90;;;;;;5011627;28;20830;-70
2020/12/01 12:42:27;;;;;;;12.43;9.30;;;3.80;99.90;;;;;;5021346;28;20213;-70
2020/12/01 12:44:52;;;;;;;17.90;12.67;;;3.90;99.90;;;;;;5011681;28;20213;-70
2020/12/01 12:47:18;;;;;;;12.10;10.53;;;3.80;99.90;;;;;;5014614;28;20186;-70
2020/12/01 12:49:44;;;;;;;13.70;9.53;;;3.70;99.90;;;;;;5026224;28;20188;-70
2020/12/01 12:52:09;;;;;;;14.80;10.67;;;3.80;99.90;;;;;;5026955;28;20202;-70
2020/12/01 12:54:35;;;;;;;11.73;10.47;;;3.80;99.90;;;;;;5020403;28;20185;-70
2020/12/01 12:57:00;;;;;;;13.77;10.27;;;3.70;99.90;;;;;;5019354;28;20185;-70
2020/12/01 12:59:26;;;;;;;14.63;10.20;;;3.50;99.90;;;;;;5019823;28;20178;-70
2020/12/01 13:01:51;;;;;;;11.73;8.90;;;3.40;99.90;;;;;;5021197;28;20214;-70
2020/12/01 13:04:18;;;;;;;18.20;11.30;;;3.50;99.90;;;;;;5025396;28;20575;-70
2020/12/01 13:06:44;;;;;;;12.10;10.03;;;3.50;99.90;;;;;;5026591;28;20240;-70
2020/12/01 13:09:09;;;;;;;14.67;10.43;;;3.50;99.90;;;;;;5024702;28;21225;-70
2020/12/01 13:11:35;;;;;;;13.33;10.20;;;3.50;99.90;;;;;;5020103;28;20468;-70
2020/12/01 13:14:00;;;;;;;11.13;9.40;;;3.60;99.90;;;;;;5021633;28;20211;-70
2020/12/01 13:16:26;;;;;;;12.63;10.07;;;3.60;99.90;;;;;;5018814;28;20182;-70
2020/12/01 13:18:52;;;;;;;13.00;10.70;;;3.60;99.90;;;;;;5016118;28;20182;-70
2020/12/01 13:21:17;;;;;;;12.37;9.70;;;3.60;99.90;;;;;;5022693;28;20582;-70
2020/12/01 13:23:43;;;;;;;11.50;9.87;;;3.60;99.90;;;;;;5024941;28;20721;-70
2020/12/01 13:26:08;;;;;;;12.93;11.50;;;3.60;99.90;;;;;;5026793;28;20171;-70
2020/12/01 13:28:34;;;;;;;11.30;9.00;;;3.70;99.90;;;;;;5024408;28;20193;-69
2020/12/01 13:31:00;;;;;;;14.17;11.00;;;3.70;99.90;;;;;;5017897;28;20202;-70
2020/12/01 13:33:26;;;;;;;12.57;10.93;;;3.80;99.90;;;;;;5014572;28;20493;-70
2020/12/01 13:35:52;;;;;;;15.07;10.37;;;3.80;99.90;;;;;;5024073;28;20438;-71